sensor_id;sensor_type;location;lat;lon;timestamp;P1;durP1;ratioP1;P2;durP2;ratioP2
47599;SDS011;33323;52.124;6.018;2023-07-20T00:01:54;6.68;;;1.90;;
47599;SDS011;33323;52.124;6.018;2023-07-20T00:04:21;2.20;;;1.80;;
47599;SDS011;33323;52.124;6.018;2023-07-20T00:06:48;2.50;;;1.92;;
47599;SDS011;33323;52.124;6.018;2023-07-20T00:09:16;4.35;;;2.42;;
47599;SDS011;33323;52.124;6.018;2023-07-20T00:11:48;5.28;;;2.35;;
47599;SDS011;33323;52.124;6.018;2023-07-20T00:14:17;3.50;;;2.20;;
47599;SDS011;33323;52.124;6.018;2023-07-20T00:16:45;4.03;;;2.45;;
47599;SDS011;33323;52.124;6.018;2023-07-20T00:19:12;2.90;;;2.22;;
47599;SDS011;33323;52.124;6.018;2023-07-20T00:21:40;5.00;;;2.53;;
47599;SDS011;33323;52.124;6.018;2023-07-20T00:24:07;5.25;;;3.20;;
47599;SDS011;33323;52.124;6.018;2023-07-20T00:26:34;4.15;;;2.53;;
47599;SDS011;33323;52.124;6.018;2023-07-20T00:29:01;5.80;;;3.30;;
47599;SDS011;33323;52.124;6.018;2023-07-20T00:31:28;4.10;;;2.97;;
47599;SDS011;33323;52.124;6.018;2023-07-20T00:33:55;6.10;;;2.97;;
47599;SDS011;33323;52.124;6.018;2023-07-20T00:36:22;7.07;;;3.17;;
47599;SDS011;33323;52.124;6.018;2023-07-20T00:38:50;6.20;;;3.40;;
47599;SDS011;33323;52.124;6.018;2023-07-20T00:41:17;4.10;;;2.90;;
47599;SDS011;33323;52.124;6.018;2023-07-20T00:43:44;5.22;;;2.58;;
47599;SDS011;33323;52.124;6.018;2023-07-20T00:46:11;6.47;;;2.45;;
47599;SDS011;33323;52.124;6.018;2023-07-20T00:48:39;5.25;;;3.05;;
47599;SDS011;33323;52.124;6.018;2023-07-20T00:51:09;4.63;;;2.75;;
47599;SDS011;33323;52.124;6.018;2023-07-20T00:53:38;4.75;;;2.58;;
47599;SDS011;33323;52.124;6.018;2023-07-20T00:56:05;6.78;;;2.53;;
47599;SDS011;33323;52.124;6.018;2023-07-20T00:58:34;4.13;;;2.00;;
47599;SDS011;33323;52.124;6.018;2023-07-20T01:01:02;4.55;;;2.28;;
47599;SDS011;33323;52.124;6.018;2023-07-20T01:03:29;3.42;;;2.03;;
47599;SDS011;33323;52.124;6.018;2023-07-20T01:06:03;4.43;;;2.00;;
47599;SDS011;33323;52.124;6.018;2023-07-20T01:11:40;2.40;;;1.58;;
47599;SDS011;33323;52.124;6.018;2023-07-20T01:14:16;2.40;;;1.70;;
47599;SDS011;33323;52.124;6.018;2023-07-20T01:16:45;2.72;;;1.50;;
47599;SDS011;33323;52.124;6.018;2023-07-20T01:19:13;3.97;;;1.70;;
47599;SDS011;33323;52.124;6.018;2023-07-20T01:21:44;2.00;;;1.40;;
47599;SDS011;33323;52.124;6.018;2023-07-20T01:33:33;1.13;;;0.70;;
47599;SDS011;33323;52.124;6.018;2023-07-20T01:36:01;2.35;;;0.95;;
47599;SDS011;33323;52.124;6.018;2023-07-20T01:38:30;1.13;;;0.60;;
47599;SDS011;33323;52.124;6.018;2023-07-20T01:40:57;2.33;;;1.27;;
47599;SDS011;33323;52.124;6.018;2023-07-20T01:43:25;1.25;;;0.70;;
47599;SDS011;33323;52.124;6.018;2023-07-20T01:45:52;1.08;;;0.60;;
47599;SDS011;33323;52.124;6.018;2023-07-20T01:48:19;1.77;;;0.43;;
47599;SDS011;33323;52.124;6.018;2023-07-20T01:50:46;1.38;;;0.70;;
47599;SDS011;33323;52.124;6.018;2023-07-20T01:53:14;2.00;;;0.95;;
47599;SDS011;33323;52.124;6.018;2023-07-20T01:55:41;1.27;;;0.80;;
47599;SDS011;33323;52.124;6.018;2023-07-20T01:58:08;2.55;;;0.70;;
47599;SDS011;33323;52.124;6.018;2023-07-20T02:00:37;1.55;;;0.80;;
47599;SDS011;33323;52.124;6.018;2023-07-20T02:03:04;0.63;;;0.52;;
47599;SDS011;33323;52.124;6.018;2023-07-20T02:05:32;1.55;;;0.90;;
47599;SDS011;33323;52.124;6.018;2023-07-20T02:07:59;1.77;;;0.70;;
47599;SDS011;33323;52.124;6.018;2023-07-20T02:10:26;1.13;;;0.80;;
47599;SDS011;33323;52.124;6.018;2023-07-20T02:12:53;1.33;;;0.75;;
47599;SDS011;33323;52.124;6.018;2023-07-20T02:15:21;1.30;;;1.08;;
47599;SDS011;33323;52.124;6.018;2023-07-20T02:17:50;0.88;;;0.63;;
47599;SDS011;33323;52.124;6.018;2023-07-20T02:20:17;2.30;;;0.70;;
47599;SDS011;33323;52.124;6.018;2023-07-20T02:22:45;0.75;;;0.70;;
47599;SDS011;33323;52.124;6.018;2023-07-20T02:25:13;2.03;;;0.80;;
47599;SDS011;33323;52.124;6.018;2023-07-20T02:27:40;1.15;;;0.65;;
47599;SDS011;33323;52.124;6.018;2023-07-20T02:30:08;0.95;;;0.63;;
47599;SDS011;33323;52.124;6.018;2023-07-20T02:32:36;1.45;;;0.70;;
47599;SDS011;33323;52.124;6.018;2023-07-20T02:35:03;1.15;;;0.57;;
47599;SDS011;33323;52.124;6.018;2023-07-20T02:37:31;0.68;;;0.52;;
47599;SDS011;33323;52.124;6.018;2023-07-20T02:39:58;0.80;;;0.50;;
47599;SDS011;33323;52.124;6.018;2023-07-20T02:42:26;0.77;;;0.60;;
47599;SDS011;33323;52.124;6.018;2023-07-20T02:44:54;0.68;;;0.60;;
47599;SDS011;33323;52.124;6.018;2023-07-20T02:47:21;1.48;;;0.40;;
47599;SDS011;33323;52.124;6.018;2023-07-20T02:49:48;1.05;;;0.63;;
47599;SDS011;33323;52.124;6.018;2023-07-20T02:52:17;0.95;;;0.50;;
47599;SDS011;33323;52.124;6.018;2023-07-20T02:54:47;0.60;;;0.47;;
47599;SDS011;33323;52.124;6.018;2023-07-20T02:57:14;1.02;;;0.50;;
47599;SDS011;33323;52.124;6.018;2023-07-20T02:59:41;1.13;;;0.50;;
47599;SDS011;33323;52.124;6.018;2023-07-20T03:02:08;2.13;;;0.52;;
47599;SDS011;33323;52.124;6.018;2023-07-20T03:04:36;0.77;;;0.40;;
47599;SDS011;33323;52.124;6.018;2023-07-20T03:07:06;1.25;;;0.40;;
47599;SDS011;33323;52.124;6.018;2023-07-20T03:09:34;1.73;;;0.60;;
47599;SDS011;33323;52.124;6.018;2023-07-20T03:12:01;0.85;;;0.60;;
47599;SDS011;33323;52.124;6.018;2023-07-20T03:14:30;0.45;;;0.40;;
47599;SDS011;33323;52.124;6.018;2023-07-20T03:16:57;0.70;;;0.50;;
47599;SDS011;33323;52.124;6.018;2023-07-20T03:19:25;0.85;;;0.45;;
47599;SDS011;33323;52.124;6.018;2023-07-20T03:21:52;1.02;;;0.77;;
47599;SDS011;33323;52.124;6.018;2023-07-20T03:24:19;1.77;;;0.50;;
47599;SDS011;33323;52.124;6.018;2023-07-20T03:26:47;1.02;;;0.40;;
47599;SDS011;33323;52.124;6.018;2023-07-20T03:29:14;0.82;;;0.40;;
47599;SDS011;33323;52.124;6.018;2023-07-20T03:31:43;0.88;;;0.43;;
47599;SDS011;33323;52.124;6.018;2023-07-20T03:34:10;11.48;;;0.82;;
47599;SDS011;33323;52.124;6.018;2023-07-20T03:36:41;1.10;;;0.80;;
47599;SDS011;33323;52.124;6.018;2023-07-20T03:39:10;0.70;;;0.60;;
47599;SDS011;33323;52.124;6.018;2023-07-20T03:41:38;0.70;;;0.60;;
47599;SDS011;33323;52.124;6.018;2023-07-20T03:44:05;1.45;;;0.47;;
47599;SDS011;33323;52.124;6.018;2023-07-20T03:46:33;1.35;;;0.90;;
47599;SDS011;33323;52.124;6.018;2023-07-20T03:49:01;0.60;;;0.40;;
47599;SDS011;33323;52.124;6.018;2023-07-20T03:51:29;1.02;;;0.50;;
47599;SDS011;33323;52.124;6.018;2023-07-20T03:53:57;0.73;;;0.40;;
47599;SDS011;33323;52.124;6.018;2023-07-20T03:56:24;1.38;;;0.70;;
47599;SDS011;33323;52.124;6.018;2023-07-20T03:58:52;0.73;;;0.60;;
47599;SDS011;33323;52.124;6.018;2023-07-20T04:01:19;2.65;;;1.50;;
47599;SDS011;33323;52.124;6.018;2023-07-20T04:03:47;0.52;;;0.50;;
47599;SDS011;33323;52.124;6.018;2023-07-20T04:06:15;0.63;;;0.40;;
47599;SDS011;33323;52.124;6.018;2023-07-20T04:08:44;0.60;;;0.50;;
47599;SDS011;33323;52.124;6.018;2023-07-20T04:11:13;4.70;;;0.98;;
47599;SDS011;33323;52.124;6.018;2023-07-20T04:13:42;0.70;;;0.60;;
47599;SDS011;33323;52.124;6.018;2023-07-20T04:16:09;5.40;;;0.75;;
47599;SDS011;33323;52.124;6.018;2023-07-20T04:18:36;1.15;;;0.60;;
47599;SDS011;33323;52.124;6.018;2023-07-20T04:21:04;0.77;;;0.40;;
47599;SDS011;33323;52.124;6.018;2023-07-20T04:23:32;0.90;;;0.50;;
47599;SDS011;33323;52.124;6.018;2023-07-20T04:25:59;0.40;;;0.40;;
47599;SDS011;33323;52.124;6.018;2023-07-20T04:28:26;1.17;;;0.50;;
47599;SDS011;33323;52.124;6.018;2023-07-20T04:30:54;2.58;;;0.98;;
47599;SDS011;33323;52.124;6.018;2023-07-20T04:33:21;1.38;;;0.50;;
47599;SDS011;33323;52.124;6.018;2023-07-20T04:35:50;1.52;;;0.60;;
47599;SDS011;33323;52.124;6.018;2023-07-20T04:38:31;0.57;;;0.50;;
47599;SDS011;33323;52.124;6.018;2023-07-20T04:41:10;0.95;;;0.70;;
47599;SDS011;33323;52.124;6.018;2023-07-20T04:43:44;1.08;;;0.47;;
47599;SDS011;33323;52.124;6.018;2023-07-20T04:46:14;1.08;;;0.50;;
47599;SDS011;33323;52.124;6.018;2023-07-20T04:48:44;1.25;;;0.50;;
47599;SDS011;33323;52.124;6.018;2023-07-20T04:51:12;1.27;;;0.68;;
47599;SDS011;33323;52.124;6.018;2023-07-20T04:53:39;2.83;;;0.50;;
47599;SDS011;33323;52.124;6.018;2023-07-20T04:56:08;0.77;;;0.50;;
47599;SDS011;33323;52.124;6.018;2023-07-20T04:58:37;0.90;;;0.30;;
47599;SDS011;33323;52.124;6.018;2023-07-20T05:01:05;0.98;;;0.90;;
47599;SDS011;33323;52.124;6.018;2023-07-20T05:03:34;0.75;;;0.47;;
47599;SDS011;33323;52.124;6.018;2023-07-20T05:06:02;1.00;;;0.52;;
47599;SDS011;33323;52.124;6.018;2023-07-20T05:08:29;3.35;;;0.43;;
47599;SDS011;33323;52.124;6.018;2023-07-20T05:10:59;3.35;;;0.63;;
47599;SDS011;33323;52.124;6.018;2023-07-20T05:13:26;0.85;;;0.40;;
47599;SDS011;33323;52.124;6.018;2023-07-20T05:15:54;0.40;;;0.30;;
47599;SDS011;33323;52.124;6.018;2023-07-20T05:18:22;0.88;;;0.40;;
47599;SDS011;33323;52.124;6.018;2023-07-20T05:20:50;1.05;;;0.40;;
47599;SDS011;33323;52.124;6.018;2023-07-20T05:23:19;1.48;;;0.50;;
47599;SDS011;33323;52.124;6.018;2023-07-20T05:25:47;0.77;;;0.30;;
47599;SDS011;33323;52.124;6.018;2023-07-20T05:28:24;1.05;;;0.40;;
47599;SDS011;33323;52.124;6.018;2023-07-20T05:30:55;0.80;;;0.45;;
47599;SDS011;33323;52.124;6.018;2023-07-20T05:33:23;0.63;;;0.30;;
47599;SDS011;33323;52.124;6.018;2023-07-20T05:35:50;1.17;;;0.40;;
47599;SDS011;33323;52.124;6.018;2023-07-20T05:38:18;4.47;;;1.40;;
47599;SDS011;33323;52.124;6.018;2023-07-20T05:40:45;2.05;;;0.30;;
47599;SDS011;33323;52.124;6.018;2023-07-20T05:43:13;1.13;;;0.30;;
47599;SDS011;33323;52.124;6.018;2023-07-20T05:45:41;1.52;;;0.32;;
47599;SDS011;33323;52.124;6.018;2023-07-20T05:48:09;1.38;;;0.40;;
47599;SDS011;33323;52.124;6.018;2023-07-20T05:50:41;0.50;;;0.30;;
47599;SDS011;33323;52.124;6.018;2023-07-20T05:53:10;1.25;;;0.30;;
47599;SDS011;33323;52.124;6.018;2023-07-20T05:55:37;1.65;;;0.30;;
47599;SDS011;33323;52.124;6.018;2023-07-20T05:58:05;2.13;;;0.40;;
47599;SDS011;33323;52.124;6.018;2023-07-20T06:00:32;0.95;;;0.40;;
47599;SDS011;33323;52.124;6.018;2023-07-20T06:02:59;0.88;;;0.30;;
47599;SDS011;33323;52.124;6.018;2023-07-20T06:05:27;0.73;;;0.13;;
47599;SDS011;33323;52.124;6.018;2023-07-20T06:07:55;0.50;;;0.30;;
47599;SDS011;33323;52.124;6.018;2023-07-20T06:10:24;1.92;;;0.32;;
47599;SDS011;33323;52.124;6.018;2023-07-20T06:12:51;2.33;;;0.30;;
47599;SDS011;33323;52.124;6.018;2023-07-20T06:15:51;3.10;;;0.40;;
47599;SDS011;33323;52.124;6.018;2023-07-20T06:18:11;2.63;;;0.30;;
47599;SDS011;33323;52.124;6.018;2023-07-20T06:20:39;1.77;;;0.25;;
47599;SDS011;33323;52.124;6.018;2023-07-20T06:23:06;0.10;;;0.10;;
47599;SDS011;33323;52.124;6.018;2023-07-20T06:25:34;0.65;;;0.20;;
47599;SDS011;33323;52.124;6.018;2023-07-20T06:28:01;0.45;;;0.30;;
47599;SDS011;33323;52.124;6.018;2023-07-20T06:30:30;1.55;;;0.30;;
47599;SDS011;33323;52.124;6.018;2023-07-20T06:33:01;0.75;;;0.28;;
47599;SDS011;33323;52.124;6.018;2023-07-20T06:35:28;0.40;;;0.20;;
47599;SDS011;33323;52.124;6.018;2023-07-20T06:37:56;0.35;;;0.30;;
47599;SDS011;33323;52.124;6.018;2023-07-20T06:40:45;0.30;;;0.20;;
47599;SDS011;33323;52.124;6.018;2023-07-20T06:43:13;0.45;;;0.20;;
47599;SDS011;33323;52.124;6.018;2023-07-20T06:45:44;0.77;;;0.20;;
47599;SDS011;33323;52.124;6.018;2023-07-20T06:48:11;1.20;;;0.20;;
47599;SDS011;33323;52.124;6.018;2023-07-20T06:50:38;0.32;;;0.20;;
47599;SDS011;33323;52.124;6.018;2023-07-20T06:53:06;0.90;;;0.45;;
47599;SDS011;33323;52.124;6.018;2023-07-20T06:55:33;2.65;;;0.57;;
47599;SDS011;33323;52.124;6.018;2023-07-20T06:58:07;0.60;;;0.20;;
47599;SDS011;33323;52.124;6.018;2023-07-20T07:00:39;0.98;;;0.30;;
47599;SDS011;33323;52.124;6.018;2023-07-20T07:03:06;6.22;;;0.30;;
47599;SDS011;33323;52.124;6.018;2023-07-20T07:05:37;3.10;;;0.45;;
47599;SDS011;33323;52.124;6.018;2023-07-20T07:08:05;0.40;;;0.20;;
47599;SDS011;33323;52.124;6.018;2023-07-20T07:10:33;1.02;;;0.30;;
47599;SDS011;33323;52.124;6.018;2023-07-20T07:13:02;2.53;;;0.30;;
47599;SDS011;33323;52.124;6.018;2023-07-20T07:15:31;1.27;;;0.40;;
47599;SDS011;33323;52.124;6.018;2023-07-20T07:17:59;1.23;;;0.30;;
47599;SDS011;33323;52.124;6.018;2023-07-20T07:20:26;2.10;;;0.43;;
47599;SDS011;33323;52.124;6.018;2023-07-20T07:22:54;2.05;;;0.30;;
47599;SDS011;33323;52.124;6.018;2023-07-20T07:25:23;0.73;;;0.28;;
47599;SDS011;33323;52.124;6.018;2023-07-20T07:27:52;0.25;;;0.20;;
47599;SDS011;33323;52.124;6.018;2023-07-20T07:30:20;0.80;;;0.30;;
47599;SDS011;33323;52.124;6.018;2023-07-20T07:32:48;0.35;;;0.20;;
47599;SDS011;33323;52.124;6.018;2023-07-20T07:35:15;0.77;;;0.20;;
47599;SDS011;33323;52.124;6.018;2023-07-20T07:37:43;0.43;;;0.30;;
47599;SDS011;33323;52.124;6.018;2023-07-20T07:40:33;1.02;;;0.55;;
47599;SDS011;33323;52.124;6.018;2023-07-20T07:43:00;0.98;;;0.30;;
47599;SDS011;33323;52.124;6.018;2023-07-20T07:45:28;1.48;;;0.35;;
47599;SDS011;33323;52.124;6.018;2023-07-20T07:47:55;1.02;;;0.20;;
47599;SDS011;33323;52.124;6.018;2023-07-20T07:50:23;1.75;;;0.20;;
47599;SDS011;33323;52.124;6.018;2023-07-20T07:52:50;5.55;;;0.40;;
47599;SDS011;33323;52.124;6.018;2023-07-20T07:55:18;1.10;;;0.20;;
47599;SDS011;33323;52.124;6.018;2023-07-20T07:57:45;1.00;;;0.20;;
47599;SDS011;33323;52.124;6.018;2023-07-20T08:00:14;0.65;;;0.22;;
47599;SDS011;33323;52.124;6.018;2023-07-20T08:02:45;0.40;;;0.20;;
47599;SDS011;33323;52.124;6.018;2023-07-20T08:05:15;0.15;;;0.10;;
47599;SDS011;33323;52.124;6.018;2023-07-20T08:07:42;0.60;;;0.30;;
47599;SDS011;33323;52.124;6.018;2023-07-20T08:10:10;1.08;;;0.30;;
47599;SDS011;33323;52.124;6.018;2023-07-20T08:12:37;0.70;;;0.30;;
47599;SDS011;33323;52.124;6.018;2023-07-20T08:15:05;0.68;;;0.28;;
47599;SDS011;33323;52.124;6.018;2023-07-20T08:17:33;0.77;;;0.35;;
47599;SDS011;33323;52.124;6.018;2023-07-20T08:20:00;0.95;;;0.32;;
47599;SDS011;33323;52.124;6.018;2023-07-20T08:22:28;0.10;;;0.10;;
47599;SDS011;33323;52.124;6.018;2023-07-20T08:24:56;1.02;;;0.32;;
47599;SDS011;33323;52.124;6.018;2023-07-20T08:27:24;0.82;;;0.20;;
47599;SDS011;33323;52.124;6.018;2023-07-20T08:29:52;1.65;;;0.20;;
47599;SDS011;33323;52.124;6.018;2023-07-20T08:32:19;0.68;;;0.20;;
47599;SDS011;33323;52.124;6.018;2023-07-20T08:34:47;2.40;;;0.90;;
47599;SDS011;33323;52.124;6.018;2023-07-20T08:37:14;0.65;;;0.30;;
47599;SDS011;33323;52.124;6.018;2023-07-20T08:39:42;1.05;;;0.10;;
47599;SDS011;33323;52.124;6.018;2023-07-20T08:42:09;1.08;;;0.20;;
47599;SDS011;33323;52.124;6.018;2023-07-20T08:44:38;1.25;;;0.22;;
47599;SDS011;33323;52.124;6.018;2023-07-20T08:47:07;0.55;;;0.15;;
47599;SDS011;33323;52.124;6.018;2023-07-20T08:49:36;0.95;;;0.30;;
47599;SDS011;33323;52.124;6.018;2023-07-20T08:52:06;1.02;;;0.57;;
47599;SDS011;33323;52.124;6.018;2023-07-20T08:54:34;1.88;;;0.20;;
47599;SDS011;33323;52.124;6.018;2023-07-20T08:57:03;0.50;;;0.20;;
47599;SDS011;33323;52.124;6.018;2023-07-20T08:59:32;0.82;;;0.30;;
47599;SDS011;33323;52.124;6.018;2023-07-20T09:02:03;2.15;;;0.30;;
47599;SDS011;33323;52.124;6.018;2023-07-20T09:04:32;0.77;;;0.50;;
47599;SDS011;33323;52.124;6.018;2023-07-20T09:07:03;0.20;;;0.20;;
47599;SDS011;33323;52.124;6.018;2023-07-20T09:09:30;0.38;;;0.17;;
47599;SDS011;33323;52.124;6.018;2023-07-20T09:11:58;0.30;;;0.20;;
47599;SDS011;33323;52.124;6.018;2023-07-20T09:14:25;0.60;;;0.20;;
47599;SDS011;33323;52.124;6.018;2023-07-20T09:16:53;0.50;;;0.20;;
47599;SDS011;33323;52.124;6.018;2023-07-20T09:19:22;0.57;;;0.20;;
47599;SDS011;33323;52.124;6.018;2023-07-20T09:21:50;0.38;;;0.20;;
47599;SDS011;33323;52.124;6.018;2023-07-20T09:24:19;0.75;;;0.10;;
47599;SDS011;33323;52.124;6.018;2023-07-20T09:26:47;1.23;;;0.40;;
47599;SDS011;33323;52.124;6.018;2023-07-20T09:29:17;0.40;;;0.20;;
47599;SDS011;33323;52.124;6.018;2023-07-20T09:31:59;0.65;;;0.20;;
47599;SDS011;33323;52.124;6.018;2023-07-20T09:34:28;1.75;;;0.30;;
47599;SDS011;33323;52.124;6.018;2023-07-20T09:37:02;0.73;;;0.20;;
47599;SDS011;33323;52.124;6.018;2023-07-20T09:39:31;0.90;;;0.52;;
47599;SDS011;33323;52.124;6.018;2023-07-20T09:42:02;1.23;;;0.30;;
47599;SDS011;33323;52.124;6.018;2023-07-20T09:44:34;1.15;;;0.30;;
47599;SDS011;33323;52.124;6.018;2023-07-20T09:47:04;0.22;;;0.15;;
47599;SDS011;33323;52.124;6.018;2023-07-20T09:49:32;1.50;;;0.38;;
47599;SDS011;33323;52.124;6.018;2023-07-20T09:52:09;1.27;;;0.30;;
47599;SDS011;33323;52.124;6.018;2023-07-20T09:54:38;0.35;;;0.20;;
47599;SDS011;33323;52.124;6.018;2023-07-20T09:57:09;0.43;;;0.20;;
47599;SDS011;33323;52.124;6.018;2023-07-20T09:59:38;1.13;;;0.20;;
47599;SDS011;33323;52.124;6.018;2023-07-20T10:02:07;0.63;;;0.20;;
47599;SDS011;33323;52.124;6.018;2023-07-20T10:04:48;0.38;;;0.30;;
47599;SDS011;33323;52.124;6.018;2023-07-20T10:07:19;0.25;;;0.20;;
47599;SDS011;33323;52.124;6.018;2023-07-20T10:09:51;0.88;;;0.30;;
47599;SDS011;33323;52.124;6.018;2023-07-20T10:12:21;0.22;;;0.15;;
47599;SDS011;33323;52.124;6.018;2023-07-20T10:15:02;1.10;;;0.28;;
47599;SDS011;33323;52.124;6.018;2023-07-20T10:18:05;0.50;;;0.20;;
47599;SDS011;33323;52.124;6.018;2023-07-20T10:20:39;0.82;;;0.17;;
47599;SDS011;33323;52.124;6.018;2023-07-20T10:23:28;0.20;;;0.20;;
47599;SDS011;33323;52.124;6.018;2023-07-20T10:25:57;0.85;;;0.30;;
47599;SDS011;33323;52.124;6.018;2023-07-20T10:28:26;0.10;;;0.10;;
47599;SDS011;33323;52.124;6.018;2023-07-20T10:30:55;0.22;;;0.20;;
47599;SDS011;33323;52.124;6.018;2023-07-20T10:33:22;2.17;;;0.15;;
47599;SDS011;33323;52.124;6.018;2023-07-20T10:41:34;0.10;;;0.10;;
47599;SDS011;33323;52.124;6.018;2023-07-20T10:44:06;0.30;;;0.10;;
47599;SDS011;33323;52.124;6.018;2023-07-20T10:49:06;0.47;;;0.20;;
47599;SDS011;33323;52.124;6.018;2023-07-20T10:51:39;0.40;;;0.20;;
47599;SDS011;33323;52.124;6.018;2023-07-20T10:56:48;0.20;;;0.20;;
47599;SDS011;33323;52.124;6.018;2023-07-20T10:59:20;0.28;;;0.20;;
47599;SDS011;33323;52.124;6.018;2023-07-20T11:02:07;0.70;;;0.28;;
47599;SDS011;33323;52.124;6.018;2023-07-20T11:04:39;1.00;;;0.30;;
47599;SDS011;33323;52.124;6.018;2023-07-20T11:07:54;0.63;;;0.20;;
47599;SDS011;33323;52.124;6.018;2023-07-20T11:10:14;0.30;;;0.30;;
47599;SDS011;33323;52.124;6.018;2023-07-20T11:18:27;0.20;;;0.15;;
47599;SDS011;33323;52.124;6.018;2023-07-20T11:20:55;1.20;;;0.30;;
47599;SDS011;33323;52.124;6.018;2023-07-20T11:23:23;0.40;;;0.20;;
47599;SDS011;33323;52.124;6.018;2023-07-20T11:25:50;0.55;;;0.50;;
47599;SDS011;33323;52.124;6.018;2023-07-20T11:28:18;0.47;;;0.30;;
47599;SDS011;33323;52.124;6.018;2023-07-20T11:30:49;2.38;;;0.52;;
47599;SDS011;33323;52.124;6.018;2023-07-20T11:33:21;0.20;;;0.10;;
47599;SDS011;33323;52.124;6.018;2023-07-20T11:35:49;0.30;;;0.20;;
47599;SDS011;33323;52.124;6.018;2023-07-20T11:38:17;0.93;;;0.60;;
47599;SDS011;33323;52.124;6.018;2023-07-20T11:40:45;0.40;;;0.10;;
47599;SDS011;33323;52.124;6.018;2023-07-20T11:43:13;1.92;;;0.30;;
47599;SDS011;33323;52.124;6.018;2023-07-20T11:45:45;0.77;;;0.40;;
47599;SDS011;33323;52.124;6.018;2023-07-20T11:48:15;0.73;;;0.28;;
47599;SDS011;33323;52.124;6.018;2023-07-20T11:50:43;1.98;;;0.28;;
47599;SDS011;33323;52.124;6.018;2023-07-20T11:53:11;0.30;;;0.20;;
47599;SDS011;33323;52.124;6.018;2023-07-20T11:55:39;0.32;;;0.30;;
47599;SDS011;33323;52.124;6.018;2023-07-20T11:58:08;2.30;;;0.30;;
47599;SDS011;33323;52.124;6.018;2023-07-20T12:00:38;0.82;;;0.30;;
47599;SDS011;33323;52.124;6.018;2023-07-20T12:03:07;0.82;;;0.30;;
47599;SDS011;33323;52.124;6.018;2023-07-20T12:05:37;0.77;;;0.50;;
47599;SDS011;33323;52.124;6.018;2023-07-20T12:08:25;1.20;;;0.30;;
47599;SDS011;33323;52.124;6.018;2023-07-20T12:10:53;0.65;;;0.47;;
47599;SDS011;33323;52.124;6.018;2023-07-20T12:13:21;12.50;;;0.57;;
47599;SDS011;33323;52.124;6.018;2023-07-20T12:15:49;0.95;;;0.30;;
47599;SDS011;33323;52.124;6.018;2023-07-20T12:18:22;1.23;;;0.20;;
47599;SDS011;33323;52.124;6.018;2023-07-20T12:20:58;3.03;;;0.40;;
47599;SDS011;33323;52.124;6.018;2023-07-20T12:23:26;2.70;;;0.32;;
47599;SDS011;33323;52.124;6.018;2023-07-20T12:26:00;0.40;;;0.30;;
47599;SDS011;33323;52.124;6.018;2023-07-20T12:28:29;0.75;;;0.20;;
47599;SDS011;33323;52.124;6.018;2023-07-20T12:30:57;1.08;;;0.30;;
47599;SDS011;33323;52.124;6.018;2023-07-20T12:33:24;1.10;;;0.28;;
47599;SDS011;33323;52.124;6.018;2023-07-20T12:35:52;0.60;;;0.30;;
47599;SDS011;33323;52.124;6.018;2023-07-20T12:38:22;3.67;;;0.50;;
47599;SDS011;33323;52.124;6.018;2023-07-20T12:40:50;1.13;;;0.25;;
47599;SDS011;33323;52.124;6.018;2023-07-20T12:43:18;0.60;;;0.30;;
47599;SDS011;33323;52.124;6.018;2023-07-20T12:45:46;0.52;;;0.30;;
47599;SDS011;33323;52.124;6.018;2023-07-20T12:48:14;0.98;;;0.30;;
47599;SDS011;33323;52.124;6.018;2023-07-20T12:50:41;1.45;;;0.70;;
47599;SDS011;33323;52.124;6.018;2023-07-20T12:53:09;0.50;;;0.30;;
47599;SDS011;33323;52.124;6.018;2023-07-20T12:55:37;0.40;;;0.20;;
47599;SDS011;33323;52.124;6.018;2023-07-20T12:58:08;3.25;;;0.32;;
47599;SDS011;33323;52.124;6.018;2023-07-20T13:00:36;0.30;;;0.20;;
47599;SDS011;33323;52.124;6.018;2023-07-20T13:03:04;0.60;;;0.20;;
47599;SDS011;33323;52.124;6.018;2023-07-20T13:05:35;2.15;;;0.22;;
47599;SDS011;33323;52.124;6.018;2023-07-20T13:08:06;3.22;;;0.40;;
47599;SDS011;33323;52.124;6.018;2023-07-20T13:10:36;1.50;;;0.20;;
47599;SDS011;33323;52.124;6.018;2023-07-20T13:13:05;0.45;;;0.20;;
47599;SDS011;33323;52.124;6.018;2023-07-20T13:15:41;0.52;;;0.28;;
47599;SDS011;33323;52.124;6.018;2023-07-20T13:18:11;1.08;;;0.30;;
47599;SDS011;33323;52.124;6.018;2023-07-20T13:20:38;0.40;;;0.20;;
47599;SDS011;33323;52.124;6.018;2023-07-20T13:23:07;0.30;;;0.30;;
47599;SDS011;33323;52.124;6.018;2023-07-20T13:25:35;0.20;;;0.20;;
47599;SDS011;33323;52.124;6.018;2023-07-20T13:28:04;1.40;;;0.30;;
47599;SDS011;33323;52.124;6.018;2023-07-20T13:30:31;0.73;;;0.40;;
47599;SDS011;33323;52.124;6.018;2023-07-20T13:33:00;0.57;;;0.20;;
47599;SDS011;33323;52.124;6.018;2023-07-20T13:35:32;2.50;;;0.32;;
47599;SDS011;33323;52.124;6.018;2023-07-20T13:38:02;1.23;;;0.20;;
47599;SDS011;33323;52.124;6.018;2023-07-20T13:40:30;0.30;;;0.20;;
47599;SDS011;33323;52.124;6.018;2023-07-20T13:42:58;0.65;;;0.15;;
47599;SDS011;33323;52.124;6.018;2023-07-20T13:45:25;2.00;;;0.28;;
47599;SDS011;33323;52.124;6.018;2023-07-20T13:47:53;0.20;;;0.20;;
47599;SDS011;33323;52.124;6.018;2023-07-20T13:50:22;0.95;;;0.22;;
47599;SDS011;33323;52.124;6.018;2023-07-20T13:52:53;1.92;;;0.40;;
47599;SDS011;33323;52.124;6.018;2023-07-20T13:55:40;0.45;;;0.30;;
47599;SDS011;33323;52.124;6.018;2023-07-20T13:58:10;0.52;;;0.30;;
47599;SDS011;33323;52.124;6.018;2023-07-20T14:00:39;1.85;;;0.20;;
47599;SDS011;33323;52.124;6.018;2023-07-20T14:03:07;1.30;;;0.20;;
47599;SDS011;33323;52.124;6.018;2023-07-20T14:05:39;0.38;;;0.32;;
47599;SDS011;33323;52.124;6.018;2023-07-20T14:08:10;2.25;;;0.60;;
47599;SDS011;33323;52.124;6.018;2023-07-20T14:10:37;1.88;;;0.50;;
47599;SDS011;33323;52.124;6.018;2023-07-20T14:13:08;1.27;;;0.63;;
47599;SDS011;33323;52.124;6.018;2023-07-20T14:15:36;2.97;;;0.82;;
47599;SDS011;33323;52.124;6.018;2023-07-20T14:18:05;1.67;;;0.75;;
47599;SDS011;33323;52.124;6.018;2023-07-20T14:20:33;2.00;;;0.77;;
47599;SDS011;33323;52.124;6.018;2023-07-20T14:23:04;3.38;;;0.80;;
47599;SDS011;33323;52.124;6.018;2023-07-20T14:25:32;2.00;;;0.80;;
47599;SDS011;33323;52.124;6.018;2023-07-20T14:28:03;3.50;;;0.85;;
47599;SDS011;33323;52.124;6.018;2023-07-20T14:30:31;1.48;;;0.50;;
47599;SDS011;33323;52.124;6.018;2023-07-20T14:32:59;2.65;;;0.50;;
47599;SDS011;33323;52.124;6.018;2023-07-20T14:35:27;1.42;;;1.33;;
47599;SDS011;33323;52.124;6.018;2023-07-20T14:37:55;0.93;;;0.40;;
47599;SDS011;33323;52.124;6.018;2023-07-20T14:40:22;0.75;;;0.50;;
47599;SDS011;33323;52.124;6.018;2023-07-20T14:42:49;1.15;;;0.40;;
47599;SDS011;33323;52.124;6.018;2023-07-20T14:45:16;0.82;;;0.30;;
47599;SDS011;33323;52.124;6.018;2023-07-20T14:47:43;0.82;;;0.40;;
47599;SDS011;33323;52.124;6.018;2023-07-20T14:50:11;0.43;;;0.35;;
47599;SDS011;33323;52.124;6.018;2023-07-20T14:52:38;3.10;;;0.55;;
47599;SDS011;33323;52.124;6.018;2023-07-20T14:55:14;0.73;;;0.30;;
47599;SDS011;33323;52.124;6.018;2023-07-20T14:57:42;1.42;;;0.80;;
47599;SDS011;33323;52.124;6.018;2023-07-20T15:00:09;1.17;;;0.50;;
47599;SDS011;33323;52.124;6.018;2023-07-20T15:02:37;1.02;;;0.50;;
47599;SDS011;33323;52.124;6.018;2023-07-20T15:05:08;4.90;;;0.70;;
47599;SDS011;33323;52.124;6.018;2023-07-20T15:07:37;0.90;;;0.50;;
47599;SDS011;33323;52.124;6.018;2023-07-20T15:10:04;0.65;;;0.40;;
47599;SDS011;33323;52.124;6.018;2023-07-20T15:12:32;1.20;;;0.85;;
47599;SDS011;33323;52.124;6.018;2023-07-20T15:15:07;0.88;;;0.55;;
47599;SDS011;33323;52.124;6.018;2023-07-20T15:17:35;2.60;;;0.40;;
47599;SDS011;33323;52.124;6.018;2023-07-20T15:20:05;2.05;;;0.47;;
47599;SDS011;33323;52.124;6.018;2023-07-20T15:22:35;0.80;;;0.45;;
47599;SDS011;33323;52.124;6.018;2023-07-20T15:25:02;0.30;;;0.30;;
47599;SDS011;33323;52.124;6.018;2023-07-20T15:27:30;2.47;;;0.40;;
47599;SDS011;33323;52.124;6.018;2023-07-20T15:29:57;1.67;;;0.50;;